Time;durP1;ratioP1;P1;durP2;ratioP2;P2;SDS_P1;SDS_P2;PMS_P1;PMS_P2;Temp;Humidity;BMP_temperature;BMP_pressure;BME280_temperature;BME280_humidity;BME280_pressure;Samples;Min_cycle;Max_cycle;Signal;HPM_P1;HPM_P2
2022/07/18 05:01:25;;;;;;;3.92;2.53;;;17.20;80.80;;;;;;5894450;23;20019;-70
2022/07/18 05:03:51;;;;;;;4.75;2.80;;;17.30;80.50;;;;;;4919467;29;20036;-70
2022/07/18 05:06:17;;;;;;;4.35;2.60;;;17.30;80.80;;;;;;4926103;29;20027;-70
2022/07/18 05:08:43;;;;;;;5.97;2.45;;;17.30;81.60;;;;;;4924960;29;20035;-69
2022/07/18 05:11:08;;;;;;;4.55;2.38;;;17.30;81.40;;;;;;4925610;29;20055;-70
2022/07/18 05:13:34;;;;;;;5.40;2.33;;;17.40;81.60;;;;;;4925525;29;20028;-69
2022/07/18 05:16:03;;;;;;;5.00;2.88;;;17.50;82.10;;;;;;4925515;29;20083;-80
2022/07/18 05:18:28;;;;;;;;;;;17.50;81.60;;;;;;4918698;29;20190;-73
2022/07/18 05:20:54;;;;;;;6.20;2.40;;;17.60;81.80;;;;;;4915620;29;19914;-71
2022/07/18 05:23:23;;;;;;;5.00;2.40;;;17.70;81.00;;;;;;4908799;29;20055;-73
2022/07/18 05:25:49;;;;;;;5.85;2.30;;;17.80;80.70;;;;;;4925165;29;20036;-74
2022/07/18 05:28:14;;;;;;;4.35;2.60;;;18.00;80.30;;;;;;4927189;29;20032;-73
2022/07/18 05:30:40;;;;;;;7.78;2.42;;;18.00;79.80;;;;;;4911424;29;20058;-75
2022/07/18 05:33:06;;;;;;;5.40;2.38;;;18.10;79.50;;;;;;4929031;29;20039;-73
2022/07/18 05:35:32;;;;;;;3.95;2.20;;;18.10;79.30;;;;;;4909436;29;20035;-76
2022/07/18 05:37:57;;;;;;;4.03;2.42;;;18.20;79.30;;;;;;4922054;29;20035;-73
2022/07/18 05:40:23;;;;;;;6.25;2.67;;;18.30;78.90;;;;;;4919306;29;20031;-73
2022/07/18 05:42:52;;;;;;;5.97;3.25;;;18.40;79.20;;;;;;4917713;29;20029;-74
2022/07/18 05:45:18;;;;;;;7.13;2.25;;;18.40;78.90;;;;;;4909841;29;20036;-73
2022/07/18 05:47:43;;;;;;;6.25;2.70;;;18.50;78.60;;;;;;4909788;29;20137;-74
2022/07/18 05:50:10;;;;;;;5.28;2.65;;;18.50;78.60;;;;;;4914631;29;20037;-72
2022/07/18 05:52:36;;;;;;;4.80;2.58;;;18.60;78.60;;;;;;4913336;29;20033;-75
2022/07/18 05:55:02;;;;;;;6.95;2.30;;;18.60;78.20;;;;;;4910481;29;20206;-73
2022/07/18 05:57:27;;;;;;;7.03;2.90;;;18.80;78.20;;;;;;4920056;29;20103;-74
2022/07/18 05:59:53;;;;;;;6.32;2.80;;;18.80;77.80;;;;;;4912054;29;20036;-73
2022/07/18 06:02:19;;;;;;;4.93;2.40;;;18.90;77.60;;;;;;4927198;29;20342;-73
2022/07/18 06:04:45;;;;;;;5.55;2.60;;;19.10;77.40;;;;;;4928802;29;20052;-74
2022/07/18 06:07:10;;;;;;;5.63;2.53;;;19.20;76.80;;;;;;4929182;29;20032;-73
2022/07/18 06:09:37;;;;;;;10.35;3.15;;;19.30;76.40;;;;;;4928622;29;20043;-73
2022/07/18 06:12:03;;;;;;;8.77;4.05;;;19.30;76.10;;;;;;4928891;29;20043;-74
2022/07/18 06:14:31;;;;;;;11.50;4.10;;;19.50;74.70;;;;;;4908962;29;20039;-73
2022/07/18 06:16:58;;;;;;;9.73;3.45;;;19.70;75.00;;;;;;4928037;29;20103;-76
2022/07/18 06:19:25;;;;;;;10.75;3.30;;;19.90;73.80;;;;;;4928831;29;20044;-74
2022/07/18 06:21:51;;;;;;;9.55;4.10;;;20.00;73.30;;;;;;4928175;29;20032;-77
2022/07/18 06:24:17;;;;;;;7.15;3.47;;;20.20;73.00;;;;;;4928886;29;20046;-75
2022/07/18 06:26:43;;;;;;;12.23;3.75;;;20.20;72.80;;;;;;4928948;29;20047;-76
2022/07/18 06:29:08;;;;;;;8.90;3.03;;;20.20;72.80;;;;;;4916073;29;20607;-74
2022/07/18 06:31:34;;;;;;;7.70;3.20;;;20.40;72.60;;;;;;4916254;29;20040;-75
2022/07/18 06:34:00;;;;;;;8.50;2.58;;;20.40;72.20;;;;;;4900432;29;20057;-72
2022/07/18 06:36:26;;;;;;;7.45;2.70;;;20.60;71.80;;;;;;4895125;29;20243;-73
2022/07/18 06:38:52;;;;;;;6.15;2.53;;;20.60;71.40;;;;;;4893958;29;20021;-73
2022/07/18 06:41:18;;;;;;;5.10;2.63;;;20.70;71.00;;;;;;4894760;29;20050;-73
2022/07/18 06:43:45;;;;;;;5.80;2.65;;;20.80;70.60;;;;;;4888894;29;20053;-74
2022/07/18 06:46:10;;;;;;;6.05;2.58;;;20.90;70.60;;;;;;4880277;29;20298;-75
2022/07/18 06:48:36;;;;;;;6.68;2.85;;;20.80;70.60;;;;;;4874023;29;20029;-74
2022/07/18 06:51:04;;;;;;;4.50;2.20;;;20.90;70.60;;;;;;4889922;29;20040;-74
2022/07/18 06:53:30;;;;;;;6.20;2.73;;;21.00;70.20;;;;;;4889509;29;20049;-74
2022/07/18 06:55:56;;;;;;;8.15;2.42;;;21.20;69.70;;;;;;4888867;29;20029;-75
2022/07/18 06:58:22;;;;;;;6.05;2.50;;;21.30;69.20;;;;;;4872825;29;20100;-75
2022/07/18 07:00:48;;;;;;;6.53;3.08;;;21.40;69.30;;;;;;4900149;29;20226;-74
2022/07/18 07:03:14;;;;;;;7.30;2.80;;;21.60;69.10;;;;;;4926297;29;20063;-74
2022/07/18 07:05:40;;;;;;;5.38;2.70;;;21.80;68.40;;;;;;4927030;29;20032;-74
2022/07/18 07:08:07;;;;;;;5.15;2.67;;;21.90;68.10;;;;;;4927283;29;20048;-75
2022/07/18 07:10:33;;;;;;;7.47;2.60;;;22.00;67.70;;;;;;4926961;29;20043;-76
2022/07/18 07:12:59;;;;;;;6.10;2.65;;;22.10;67.40;;;;;;4926486;29;20095;-75
2022/07/18 07:15:25;;;;;;;7.55;2.47;;;22.20;67.10;;;;;;4926443;29;20036;-75
2022/07/18 07:17:51;;;;;;;5.50;2.45;;;22.40;67.00;;;;;;4925982;29;20056;-74
2022/07/18 07:20:20;;;;;;;5.25;2.42;;;22.50;66.40;;;;;;4926269;29;20385;-74
2022/07/18 07:22:54;;;;;;;4.80;2.13;;;22.70;65.90;;;;;;4926632;29;20222;-74
2022/07/18 07:25:22;;;;;;;7.70;2.97;;;22.80;65.80;;;;;;4926186;29;20032;-73
2022/07/18 07:27:47;;;;;;;8.60;2.78;;;23.00;65.40;;;;;;4926235;29;20046;-74
2022/07/18 07:30:15;;;;;;;4.32;2.20;;;23.10;64.80;;;;;;4924563;29;20055;-74
2022/07/18 07:32:43;;;;;;;7.00;2.15;;;23.20;65.10;;;;;;4924229;29;20051;-75
2022/07/18 07:35:11;;;;;;;5.82;2.33;;;23.30;64.40;;;;;;4917942;29;20393;-75
2022/07/18 07:37:47;;;;;;;7.25;2.50;;;23.40;64.10;;;;;;4919781;29;20032;-76
2022/07/18 07:40:14;;;;;;;4.35;2.38;;;23.60;64.10;;;;;;4913229;29;20152;-77
2022/07/18 07:42:40;;;;;;;5.45;2.38;;;23.70;63.60;;;;;;4906996;29;20040;-75
2022/07/18 07:45:07;;;;;;;5.55;2.15;;;23.90;63.20;;;;;;4905755;29;20202;-77
2022/07/18 07:47:33;;;;;;;8.95;3.03;;;24.00;62.80;;;;;;4906079;29;20493;-77
2022/07/18 07:49:59;;;;;;;5.95;2.60;;;24.00;62.50;;;;;;4905219;29;20251;-76
2022/07/18 07:52:25;;;;;;;4.25;2.45;;;24.10;62.50;;;;;;4907055;29;20077;-73
2022/07/18 07:54:51;;;;;;;7.97;2.00;;;24.30;62.20;;;;;;4916487;29;20051;-74
2022/07/18 07:57:17;;;;;;;5.07;2.10;;;24.40;61.80;;;;;;4925778;29;20038;-76
2022/07/18 07:59:42;;;;;;;7.78;3.00;;;24.60;61.70;;;;;;4925841;29;20036;-75
2022/07/18 08:02:09;;;;;;;13.40;3.60;;;24.70;60.90;;;;;;4925036;29;20214;-74
2022/07/18 08:04:35;;;;;;;10.82;3.15;;;24.80;60.60;;;;;;4925412;29;20050;-73
2022/07/18 08:07:01;;;;;;;18.25;3.60;;;24.90;60.50;;;;;;4924844;29;20051;-76
2022/07/18 08:09:27;;;;;;;12.80;4.10;;;24.90;60.20;;;;;;4925624;29;20035;-74
2022/07/18 08:11:52;;;;;;;10.40;3.10;;;25.00;60.20;;;;;;4925277;29;20039;-73
2022/07/18 08:14:18;;;;;;;7.40;2.80;;;25.20;59.80;;;;;;4925746;29;20035;-74
2022/07/18 08:16:44;;;;;;;12.30;2.90;;;25.30;59.80;;;;;;4924150;29;20044;-73
2022/07/18 08:19:10;;;;;;;6.13;2.42;;;25.50;59.30;;;;;;4925235;29;20086;-74
2022/07/18 08:21:36;;;;;;;8.77;2.63;;;25.60;59.30;;;;;;4925586;29;20036;-75
2022/07/18 08:24:02;;;;;;;6.75;2.80;;;25.70;58.30;;;;;;4910422;29;20027;-74
2022/07/18 08:26:28;;;;;;;5.53;1.83;;;25.70;58.10;;;;;;4905294;29;20056;-75
2022/07/18 08:28:54;;;;;;;4.28;1.85;;;25.70;58.00;;;;;;4905736;29;20039;-73
2022/07/18 08:31:19;;;;;;;6.35;1.70;;;25.90;57.50;;;;;;4905722;29;20231;-74
2022/07/18 08:33:47;;;;;;;3.55;1.75;;;26.00;57.20;;;;;;4905982;29;20040;-74
2022/07/18 08:36:13;;;;;;;4.37;1.80;;;26.10;57.20;;;;;;4906363;29;20056;-75
2022/07/18 08:38:39;;;;;;;5.63;1.85;;;26.20;56.80;;;;;;4906363;29;20084;-75
2022/07/18 08:41:05;;;;;;;4.60;1.60;;;26.30;56.40;;;;;;4906228;29;20047;-75
2022/07/18 08:43:32;;;;;;;5.60;2.00;;;26.40;55.80;;;;;;4906835;29;20136;-75
2022/07/18 08:46:05;;;;;;;3.80;1.50;;;26.60;55.80;;;;;;4905613;29;20160;-75
2022/07/18 08:48:31;;;;;;;4.88;1.65;;;26.60;54.70;;;;;;4907738;29;20036;-74
2022/07/18 08:50:58;;;;;;;5.03;1.95;;;26.60;54.70;;;;;;4906145;29;20075;-74
2022/07/18 08:53:24;;;;;;;5.05;1.90;;;26.70;54.70;;;;;;4925349;29;20080;-77
2022/07/18 08:55:50;;;;;;;3.65;1.52;;;26.70;53.80;;;;;;4925132;29;20047;-76
2022/07/18 08:58:17;;;;;;;3.92;1.45;;;26.80;53.00;;;;;;4918864;29;20036;-76
2022/07/18 09:00:44;;;;;;;3.17;1.40;;;26.90;52.10;;;;;;4914335;29;20325;-77
2022/07/18 09:03:10;;;;;;;6.10;1.92;;;26.80;51.50;;;;;;4913814;29;20057;-74
2022/07/18 09:05:37;;;;;;;4.13;1.55;;;26.90;51.70;;;;;;4916862;29;20103;-74
2022/07/18 09:08:21;;;;;;;4.63;1.30;;;27.00;49.20;;;;;;4918032;29;20051;-75
2022/07/18 09:10:52;;;;;;;6.28;1.63;;;27.00;50.00;;;;;;4916905;29;20040;-75
2022/07/18 09:13:22;;;;;;;6.63;1.85;;;27.10;50.10;;;;;;4905813;29;20036;-75
2022/07/18 09:16:05;;;;;;;4.75;1.60;;;27.30;51.20;;;;;;4905398;29;20462;-75
2022/07/18 09:18:34;;;;;;;3.40;1.50;;;27.40;50.30;;;;;;4906502;29;20218;-75
2022/07/18 09:21:03;;;;;;;3.17;1.40;;;27.60;50.50;;;;;;4919952;29;20044;-77
2022/07/18 09:23:34;;;;;;;5.40;1.70;;;27.70;50.40;;;;;;4924429;29;20230;-74
2022/07/18 09:26:01;;;;;;;3.75;1.30;;;27.80;49.80;;;;;;4924117;29;20043;-75
2022/07/18 09:28:49;;;;;;;3.30;1.80;;;28.00;49.50;;;;;;4924545;29;20051;-74
2022/07/18 09:31:24;;;;;;;7.53;1.70;;;27.90;49.60;;;;;;4915565;29;20060;-75
2022/07/18 09:34:06;;;;;;;3.63;1.70;;;27.90;49.90;;;;;;4904313;29;20036;-75
2022/07/18 09:36:36;;;;;;;5.10;1.90;;;28.10;49.40;;;;;;4905645;29;20089;-75
2022/07/18 09:39:22;;;;;;;4.97;1.83;;;28.20;49.70;;;;;;4906478;29;20017;-75
2022/07/18 09:41:48;;;;;;;5.47;1.50;;;28.30;49.40;;;;;;4907343;29;20039;-78
2022/07/18 09:44:18;;;;;;;4.05;1.38;;;28.40;49.20;;;;;;4924235;29;20230;-75
2022/07/18 09:47:04;;;;;;;9.50;1.92;;;28.50;49.80;;;;;;4891202;29;20046;-75
2022/07/18 09:49:41;;;;;;;5.20;1.48;;;28.60;49.60;;;;;;4924178;29;20147;-75
2022/07/18 09:52:09;;;;;;;6.85;1.65;;;28.70;47.70;;;;;;4923895;29;20032;-75
2022/07/18 09:54:42;;;;;;;3.67;1.35;;;28.90;48.20;;;;;;4920690;29;20040;-75
2022/07/18 09:57:09;;;;;;;3.13;0.98;;;28.90;46.60;;;;;;4920481;29;20330;-75
2022/07/18 09:59:37;;;;;;;3.97;1.20;;;28.90;45.80;;;;;;4924273;29;20322;-74
2022/07/18 10:02:04;;;;;;;4.75;1.40;;;28.90;47.00;;;;;;4922787;29;20115;-76
2022/07/18 10:04:45;;;;;;;3.30;0.90;;;29.10;46.70;;;;;;4924318;29;20043;-76
2022/07/18 10:07:12;;;;;;;2.55;1.30;;;29.20;46.30;;;;;;4924142;29;20314;-75
2022/07/18 10:09:41;;;;;;;6.00;1.30;;;29.20;45.90;;;;;;4924142;29;20028;-75
2022/07/18 10:12:08;;;;;;;3.33;1.15;;;29.30;46.20;;;;;;4923872;29;20198;-75
2022/07/18 10:14:33;;;;;;;2.55;1.00;;;29.40;46.10;;;;;;4923893;29;20385;-74
2022/07/18 10:17:00;;;;;;;4.40;1.50;;;29.50;45.60;;;;;;4923244;29;20041;-75
2022/07/18 10:19:26;;;;;;;2.47;0.98;;;29.60;45.50;;;;;;4909012;29;20247;-74
2022/07/18 10:21:54;;;;;;;2.75;0.80;;;29.70;45.50;;;;;;4914281;29;20043;-73
2022/07/18 10:24:23;;;;;;;3.50;1.20;;;29.70;44.60;;;;;;4909959;29;20107;-74
2022/07/18 10:27:16;;;;;;;2.42;1.08;;;29.70;45.60;;;;;;4928468;29;20047;-74
2022/07/18 10:30:11;;;;;;;1.63;0.93;;;29.90;45.60;;;;;;4928655;29;20377;-74
2022/07/18 10:32:37;;;;;;;2.72;1.00;;;29.90;44.80;;;;;;4892550;29;20052;-75
2022/07/18 10:35:06;;;;;;;3.58;1.38;;;29.90;43.70;;;;;;4921999;29;20020;-76
2022/07/18 10:37:35;;;;;;;2.65;1.02;;;29.90;44.50;;;;;;4911697;29;20106;-76
2022/07/18 10:40:28;;;;;;;4.85;1.10;;;30.00;42.80;;;;;;4928319;29;20311;-80
2022/07/18 10:43:41;;;;;;;3.75;1.17;;;30.00;43.50;;;;;;4895867;29;20031;-70
2022/07/18 10:46:09;;;;;;;2.20;1.00;;;30.10;44.00;;;;;;4893957;29;20103;-70
2022/07/18 10:48:35;;;;;;;7.03;1.30;;;30.10;44.60;;;;;;4928373;29;20064;-70
2022/07/18 10:51:09;;;;;;;4.85;1.38;;;30.20;44.80;;;;;;4928255;29;20091;-70
2022/07/18 10:54:05;;;;;;;2.00;1.00;;;30.40;44.50;;;;;;4928399;29;20044;-70
2022/07/18 10:56:54;;;;;;;1.80;1.10;;;30.60;44.40;;;;;;4912324;29;20051;-70
2022/07/18 10:59:24;;;;;;;2.45;0.93;;;30.60;44.40;;;;;;4923204;29;20066;-70
2022/07/18 11:01:53;;;;;;;1.35;0.70;;;30.70;43.80;;;;;;4926063;29;20154;-70
2022/07/18 11:04:34;;;;;;;1.50;0.80;;;30.70;43.00;;;;;;4926155;29;20036;-69
2022/07/18 11:07:15;;;;;;;2.22;0.93;;;30.90;42.60;;;;;;4926785;29;20189;-70
2022/07/18 11:09:43;;;;;;;2.60;0.80;;;31.00;42.90;;;;;;4922095;29;20156;-68
2022/07/18 11:12:24;;;;;;;2.70;0.98;;;31.20;43.00;;;;;;4908473;29;20055;-68
2022/07/18 11:15:10;;;;;;;2.92;1.25;;;31.30;42.90;;;;;;4923429;29;20058;-70
2022/07/18 11:17:51;;;;;;;2.60;0.82;;;31.40;43.40;;;;;;4927370;29;20111;-70
2022/07/18 11:20:42;;;;;;;4.80;0.85;;;31.70;42.80;;;;;;4927613;29;20047;-69
2022/07/18 11:23:21;;;;;;;5.30;1.55;;;31.80;43.10;;;;;;4927082;29;20058;-72
2022/07/18 11:25:49;;;;;;;2.25;0.70;;;31.90;42.70;;;;;;4927457;29;20050;-70
2022/07/18 11:28:15;;;;;;;2.35;0.98;;;32.20;41.80;;;;;;4927695;29;20019;-68
2022/07/18 11:30:44;;;;;;;1.65;0.90;;;32.40;42.40;;;;;;4925319;29;20095;-69
2022/07/18 11:33:25;;;;;;;3.20;0.85;;;32.40;41.70;;;;;;4927397;29;20070;-70
2022/07/18 11:35:51;;;;;;;2.80;0.93;;;32.50;42.00;;;;;;4927330;29;20036;-71
2022/07/18 11:38:18;;;;;;;1.90;0.80;;;32.80;42.30;;;;;;4927290;29;20032;-73
2022/07/18 11:40:51;;;;;;;2.78;0.93;;;33.30;41.90;;;;;;4927247;29;20040;-68
2022/07/18 11:43:35;;;;;;;11.02;1.50;;;33.90;41.40;;;;;;4926738;29;20040;-70
2022/07/18 11:46:09;;;;;;;2.20;0.70;;;34.40;40.50;;;;;;4926463;29;20051;-71
2022/07/18 11:48:36;;;;;;;2.13;0.80;;;34.80;39.80;;;;;;4927571;29;20115;-73
2022/07/18 11:51:02;;;;;;;2.50;0.70;;;35.50;39.40;;;;;;4927456;29;20075;-71
2022/07/18 11:53:29;;;;;;;3.42;0.80;;;36.10;39.80;;;;;;4929844;29;20036;-71
2022/07/18 11:55:55;;;;;;;1.35;0.73;;;36.80;40.60;;;;;;4928377;29;20039;-70
2022/07/18 11:58:22;;;;;;;3.78;0.85;;;37.60;38.40;;;;;;4926437;29;20036;-70
2022/07/18 12:00:48;;;;;;;3.20;0.65;;;38.70;38.40;;;;;;4910178;29;20229;-70
2022/07/18 12:03:17;;;;;;;2.38;0.93;;;39.60;38.10;;;;;;4927260;29;20058;-69
2022/07/18 12:05:49;;;;;;;4.30;0.77;;;40.30;37.20;;;;;;4927276;29;20042;-71
2022/07/18 12:08:45;;;;;;;2.40;0.90;;;40.40;36.30;;;;;;4927027;29;20028;-71
2022/07/18 12:11:29;;;;;;;2.30;0.95;;;40.80;36.40;;;;;;4912824;29;20044;-75
2022/07/18 12:13:57;;;;;;;1.17;0.70;;;40.70;36.60;;;;;;4914244;29;20028;-71
2022/07/18 12:16:45;;;;;;;2.17;0.63;;;41.60;36.10;;;;;;4909529;29;20103;-72
2022/07/18 12:19:23;;;;;;;1.23;0.60;;;43.20;35.50;;;;;;4921948;29;20051;-71
2022/07/18 12:21:54;;;;;;;1.52;0.73;;;42.90;34.70;;;;;;4927159;29;20024;-72
2022/07/18 12:24:59;;;;;;;2.00;0.80;;;43.60;34.80;;;;;;4926776;29;20064;-79
2022/07/18 12:27:35;;;;;;;1.48;0.70;;;43.50;35.10;;;;;;4926994;29;20031;-75
2022/07/18 12:30:35;;;;;;;2.25;0.88;;;43.70;34.80;;;;;;4911076;29;20071;-80
2022/07/18 12:33:09;;;;;;;3.30;0.63;;;44.70;34.70;;;;;;4925258;29;20138;-78
2022/07/18 12:35:42;;;;;;;3.03;0.90;;;44.90;33.80;;;;;;4910373;29;20052;-78
2022/07/18 12:38:20;;;;;;;2.65;0.80;;;44.10;34.10;;;;;;4907160;29;20103;-77
2022/07/18 12:41:03;;;;;;;2.92;0.80;;;43.60;34.80;;;;;;4920651;29;20337;-77
2022/07/18 12:43:38;;;;;;;2.08;0.77;;;44.10;34.60;;;;;;4914523;29;20059;-76
2022/07/18 12:46:07;;;;;;;1.30;0.60;;;45.60;35.20;;;;;;4910388;29;20040;-76
2022/07/18 12:48:34;;;;;;;2.03;0.65;;;46.60;34.20;;;;;;4909183;29;20036;-78
2022/07/18 12:51:09;;;;;;;1.92;0.77;;;47.40;34.20;;;;;;4924793;29;20027;-78
2022/07/18 12:53:41;;;;;;;2.50;0.70;;;47.80;33.90;;;;;;4908739;29;20036;-78
2022/07/18 12:56:07;;;;;;;1.30;0.65;;;48.80;33.20;;;;;;4925211;29;20093;-76
2022/07/18 12:58:34;;;;;;;2.35;0.60;;;49.30;33.10;;;;;;4892337;29;20091;-77
2022/07/18 13:01:15;;;;;;;2.05;0.65;;;49.70;32.80;;;;;;4907764;29;20043;-77
2022/07/18 13:03:41;;;;;;;1.92;0.60;;;49.50;33.20;;;;;;4925471;29;20315;-77
2022/07/18 13:06:07;;;;;;;3.10;0.90;;;49.80;33.20;;;;;;4908269;29;20032;-76
2022/07/18 13:08:33;;;;;;;2.40;0.90;;;50.00;32.60;;;;;;4908031;29;20036;-76
2022/07/18 13:10:59;;;;;;;2.30;0.85;;;48.40;33.60;;;;;;4925210;29;20035;-77
2022/07/18 13:13:25;;;;;;;2.57;0.87;;;47.90;32.90;;;;;;4925233;29;20076;-76
2022/07/18 13:15:50;;;;;;;2.45;0.80;;;47.40;32.90;;;;;;4919564;29;20607;-78
2022/07/18 13:18:16;;;;;;;2.03;0.80;;;47.30;32.80;;;;;;4921089;29;20036;-77
2022/07/18 13:20:42;;;;;;;1.17;0.63;;;48.30;32.90;;;;;;4908319;29;20043;-77
2022/07/18 13:23:10;;;;;;;3.92;0.70;;;49.00;33.10;;;;;;4925140;29;20047;-76
2022/07/18 13:25:35;;;;;;;1.77;0.80;;;49.40;32.70;;;;;;4925404;29;20331;-76
2022/07/18 13:28:02;;;;;;;2.42;0.65;;;49.30;32.80;;;;;;4925660;29;20050;-76
2022/07/18 13:30:28;;;;;;;1.60;0.70;;;49.20;32.30;;;;;;4925166;29;20044;-76
2022/07/18 13:33:03;;;;;;;1.40;0.60;;;49.80;32.70;;;;;;4924668;29;20048;-80
2022/07/18 13:35:29;;;;;;;3.15;0.73;;;50.10;32.10;;;;;;4922914;29;20058;-75
2022/07/18 13:37:55;;;;;;;1.48;0.70;;;50.50;32.60;;;;;;4905107;29;20060;-76
2022/07/18 13:40:20;;;;;;;2.05;0.77;;;50.30;32.50;;;;;;4921375;29;20275;-75
2022/07/18 13:42:46;;;;;;;2.22;0.90;;;50.90;32.50;;;;;;4906541;29;20386;-76
2022/07/18 13:45:14;;;;;;;2.28;0.80;;;50.40;31.90;;;;;;4906167;29;20107;-75
2022/07/18 13:47:41;;;;;;;1.80;0.70;;;51.20;31.90;;;;;;4921547;29;20044;-75
2022/07/18 13:50:08;;;;;;;2.30;0.73;;;51.60;31.60;;;;;;4893409;29;20037;-74
2022/07/18 13:52:34;;;;;;;1.95;0.90;;;51.20;32.00;;;;;;4915568;29;20103;-77
2022/07/18 13:55:00;;;;;;;2.83;0.73;;;52.50;31.90;;;;;;4929151;29;20337;-76
2022/07/18 13:57:26;;;;;;;;;;;53.20;31.50;;;;;;4912660;29;20087;-76
2022/07/18 13:59:51;;;;;;;1.63;0.80;;;53.90;31.50;;;;;;4912521;29;19911;-75
2022/07/18 14:02:20;;;;;;;3.55;0.90;;;53.70;31.00;;;;;;4911106;29;20052;-77
2022/07/18 14:04:55;;;;;;;2.00;0.80;;;53.70;31.20;;;;;;4912646;29;20079;-79
2022/07/18 14:07:24;;;;;;;3.60;0.90;;;52.90;31.00;;;;;;4912285;29;20028;-81
2022/07/18 14:09:50;;;;;;;1.50;0.73;;;52.00;31.70;;;;;;4909183;29;20028;-75
2022/07/18 14:12:40;;;;;;;3.45;1.20;;;52.50;31.70;;;;;;4909726;29;20099;-79
2022/07/18 14:15:25;;;;;;;2.58;0.90;;;52.20;31.40;;;;;;4892446;29;20060;-77
2022/07/18 14:18:01;;;;;;;3.07;1.10;;;51.70;32.40;;;;;;4909772;29;20035;-80
2022/07/18 14:20:29;;;;;;;2.35;1.02;;;52.30;31.10;;;;;;4908505;29;20032;-77
2022/07/18 14:22:55;;;;;;;2.53;0.98;;;53.10;31.30;;;;;;4883483;29;20023;-77
2022/07/18 14:25:21;;;;;;;2.53;1.08;;;53.80;31.50;;;;;;4928351;29;20032;-75
2022/07/18 14:27:49;;;;;;;1.83;0.95;;;53.70;31.40;;;;;;4928461;29;20278;-80
2022/07/18 14:30:16;;;;;;;2.47;0.95;;;54.00;31.30;;;;;;4927125;29;20040;-75
2022/07/18 14:32:42;;;;;;;4.65;1.20;;;54.40;31.30;;;;;;4928082;29;20036;-76
2022/07/18 14:35:08;;;;;;;;;;;54.80;31.30;;;;;;4928556;29;20035;-75
2022/07/18 14:37:34;;;;;;;5.00;1.40;;;54.50;31.00;;;;;;4928434;29;19907;-76
2022/07/18 14:40:00;;;;;;;1.42;0.90;;;54.40;31.20;;;;;;4927719;29;20028;-74
2022/07/18 14:42:26;;;;;;;4.57;1.10;;;54.50;30.90;;;;;;4927757;29;20032;-76
2022/07/18 14:44:53;;;;;;;2.60;1.17;;;54.80;31.10;;;;;;4928170;29;20024;-73
2022/07/18 14:47:18;;;;;;;2.75;0.95;;;54.30;31.20;;;;;;4927106;29;20052;-74
2022/07/18 14:49:53;;;;;;;;;;;55.00;31.10;;;;;;4928256;29;20373;-77
2022/07/18 14:52:21;;;;;;;4.00;1.30;;;55.10;30.90;;;;;;4927711;29;19914;-75
2022/07/18 14:54:49;;;;;;;2.95;1.05;;;55.10;30.60;;;;;;4928447;29;20031;-73
2022/07/18 14:57:16;;;;;;;;;;;54.50;30.70;;;;;;4928803;29;20036;-74
2022/07/18 14:59:41;;;;;;;1.98;1.00;;;55.00;31.20;;;;;;4927975;29;19952;-75
2022/07/18 15:02:07;;;;;;;;;;;55.10;30.50;;;;;;4910988;29;20067;-75
2022/07/18 15:04:34;;;;;;;2.22;1.10;;;56.00;30.80;;;;;;4929048;29;19907;-74
2022/07/18 15:07:00;;;;;;;2.47;1.10;;;56.40;30.50;;;;;;4928675;29;20040;-75
2022/07/18 15:09:25;;;;;;;4.10;1.00;;;56.40;30.70;;;;;;4928596;29;20084;-74
2022/07/18 15:11:51;;;;;;;3.13;1.20;;;55.90;30.70;;;;;;4929100;29;20039;-76
2022/07/18 15:14:17;;;;;;;;;;;55.90;30.70;;;;;;4912443;29;20039;-75
2022/07/18 15:16:42;;;;;;;2.90;1.00;;;55.20;31.00;;;;;;4911213;29;19911;-73
2022/07/18 15:19:08;;;;;;;3.33;1.00;;;55.40;31.30;;;;;;4927880;29;20242;-75
2022/07/18 15:21:35;;;;;;;1.58;0.90;;;55.00;31.00;;;;;;4928373;29;20035;-73
2022/07/18 15:24:01;;;;;;;2.03;1.10;;;54.80;30.60;;;;;;4928040;29;20050;-74
2022/07/18 15:26:27;;;;;;;2.70;0.98;;;54.30;31.60;;;;;;4928747;29;20051;-73
2022/07/18 15:28:52;;;;;;;;;;;54.90;30.80;;;;;;4929354;29;20059;-75
2022/07/18 15:31:18;;;;;;;3.25;1.23;;;55.10;30.70;;;;;;4926272;29;19914;-76
2022/07/18 15:33:44;;;;;;;2.35;1.05;;;55.00;30.80;;;;;;4928384;29;20226;-75
2022/07/18 15:36:10;;;;;;;1.95;0.88;;;54.50;30.80;;;;;;4928588;29;20075;-75
2022/07/18 15:38:36;;;;;;;1.58;0.95;;;54.10;31.00;;;;;;4929062;29;20056;-74
2022/07/18 15:41:07;;;;;;;1.52;0.95;;;54.00;30.80;;;;;;4911544;29;20080;-73
2022/07/18 15:43:33;;;;;;;2.45;0.82;;;54.30;30.50;;;;;;4928592;29;20040;-74
2022/07/18 15:45:59;;;;;;;4.55;1.25;;;53.90;30.60;;;;;;4911690;29;20051;-73
2022/07/18 15:48:25;;;;;;;1.80;0.80;;;53.60;31.70;;;;;;4928224;29;20056;-74
2022/07/18 15:50:52;;;;;;;2.10;0.90;;;53.60;31.30;;;;;;4928561;29;20082;-73
2022/07/18 15:53:18;;;;;;;3.85;0.80;;;53.60;31.00;;;;;;4928216;29;20023;-73
2022/07/18 15:55:43;;;;;;;1.63;0.90;;;54.10;31.20;;;;;;4928534;29;20043;-75
2022/07/18 15:58:09;;;;;;;2.63;0.80;;;54.10;31.00;;;;;;4928387;29;20222;-74
2022/07/18 16:00:35;;;;;;;1.90;1.20;;;54.30;31.40;;;;;;4927759;29;20076;-73
2022/07/18 16:03:03;;;;;;;1.83;0.80;;;54.00;30.50;;;;;;4928847;29;20107;-73
2022/07/18 16:05:29;;;;;;;1.88;0.60;;;54.20;30.50;;;;;;4911483;29;20024;-73
2022/07/18 16:07:55;;;;;;;2.83;1.00;;;54.20;30.50;;;;;;4928680;29;20083;-78
2022/07/18 16:10:21;;;;;;;8.30;1.27;;;54.40;31.00;;;;;;4928511;29;20099;-74
2022/07/18 16:12:48;;;;;;;5.82;1.15;;;54.00;30.60;;;;;;4927185;29;20035;-74
2022/07/18 16:15:14;;;;;;;10.02;1.40;;;53.10;30.90;;;;;;4927099;29;20047;-75
2022/07/18 16:17:40;;;;;;;2.78;0.73;;;52.60;31.00;;;;;;4927525;29;20356;-73
2022/07/18 16:20:09;;;;;;;2.30;0.80;;;52.60;31.20;;;;;;4925797;29;20043;-74
2022/07/18 16:22:35;;;;;;;1.63;0.80;;;53.30;31.00;;;;;;4925231;29;20040;-73
2022/07/18 16:25:01;;;;;;;3.03;0.97;;;53.00;30.60;;;;;;4926506;29;20091;-73
2022/07/18 16:27:29;;;;;;;3.13;0.67;;;52.70;31.00;;;;;;4926053;29;20024;-72
2022/07/18 16:29:55;;;;;;;2.72;0.70;;;52.10;31.10;;;;;;4909923;29;20095;-73
2022/07/18 16:32:23;;;;;;;2.37;1.00;;;52.30;31.10;;;;;;4925496;29;20341;-74
2022/07/18 16:34:49;;;;;;;2.80;1.10;;;52.90;31.40;;;;;;4926048;29;20061;-73
2022/07/18 16:37:15;;;;;;;2.25;0.88;;;53.40;31.00;;;;;;4925101;29;20253;-72
2022/07/18 16:39:41;;;;;;;1.53;0.83;;;53.80;31.00;;;;;;4925613;29;20036;-73
2022/07/18 16:42:07;;;;;;;3.92;0.88;;;53.80;30.70;;;;;;4925242;29;20059;-72
2022/07/18 16:44:33;;;;;;;1.73;0.88;;;53.70;30.80;;;;;;4908585;29;20051;-75
2022/07/18 16:47:02;;;;;;;4.22;1.30;;;53.10;30.50;;;;;;4924310;29;20333;-75
2022/07/18 16:49:28;;;;;;;2.67;1.00;;;52.70;31.00;;;;;;4923944;29;20063;-73
2022/07/18 16:51:56;;;;;;;3.55;1.00;;;51.90;31.20;;;;;;4924177;29;20024;-73
2022/07/18 16:54:25;;;;;;;2.70;0.80;;;51.10;31.40;;;;;;4924347;29;20044;-72
2022/07/18 16:56:53;;;;;;;2.58;1.10;;;49.50;31.50;;;;;;4924374;29;20202;-72
2022/07/18 16:59:22;;;;;;;2.40;0.98;;;48.50;32.20;;;;;;4923857;29;20175;-73
2022/07/18 17:01:48;;;;;;;3.13;0.98;;;47.10;32.70;;;;;;4906479;29;20349;-72
2022/07/18 17:04:17;;;;;;;3.97;1.05;;;45.90;33.00;;;;;;4924342;29;20052;-74
2022/07/18 17:06:43;;;;;;;5.32;1.42;;;44.70;33.90;;;;;;4907746;29;20143;-74
2022/07/18 17:09:10;;;;;;;3.25;1.20;;;43.80;35.00;;;;;;4924370;29;20036;-73
2022/07/18 17:11:36;;;;;;;2.55;0.90;;;42.90;34.80;;;;;;4924269;29;20063;-74
2022/07/18 17:14:02;;;;;;;2.35;1.10;;;42.40;35.30;;;;;;4924278;29;20047;-74
2022/07/18 17:16:28;;;;;;;2.08;1.20;;;42.80;35.10;;;;;;4923251;29;20055;-74
2022/07/18 17:18:54;;;;;;;2.92;1.00;;;43.40;34.80;;;;;;4924408;29;20051;-74
2022/07/18 17:21:20;;;;;;;3.40;1.15;;;43.90;34.40;;;;;;4923891;29;20027;-75
2022/07/18 17:23:47;;;;;;;3.15;1.00;;;44.90;34.30;;;;;;4923997;29;20047;-75
2022/07/18 17:26:13;;;;;;;2.00;0.70;;;45.40;33.60;;;;;;4923550;29;20178;-74
2022/07/18 17:28:39;;;;;;;2.10;1.20;;;46.30;33.70;;;;;;4907537;29;20195;-74
2022/07/18 17:31:05;;;;;;;3.20;1.08;;;46.70;33.10;;;;;;4925294;29;20078;-71
2022/07/18 17:33:31;;;;;;;2.60;0.88;;;47.00;33.70;;;;;;4909279;29;20036;-73
2022/07/18 17:36:00;;;;;;;2.40;1.20;;;47.10;33.60;;;;;;4926583;29;20051;-73
2022/07/18 17:38:26;;;;;;;2.80;1.48;;;46.60;33.60;;;;;;4927164;29;20044;-72
2022/07/18 17:40:52;;;;;;;2.00;1.00;;;46.20;33.90;;;;;;4926379;29;20103;-73
2022/07/18 17:43:18;;;;;;;1.30;0.77;;;45.50;34.00;;;;;;4923817;29;20036;-74
2022/07/18 17:45:44;;;;;;;2.80;1.20;;;45.20;34.50;;;;;;4923974;29;20103;-73
2022/07/18 17:48:11;;;;;;;2.17;0.95;;;45.00;34.30;;;;;;4925503;29;20127;-74
2022/07/18 17:50:37;;;;;;;2.38;1.08;;;44.90;34.70;;;;;;4926428;29;20230;-74
2022/07/18 17:53:04;;;;;;;3.53;1.40;;;44.80;34.50;;;;;;4925341;29;20107;-74
2022/07/18 17:55:30;;;;;;;3.28;1.30;;;44.90;35.00;;;;;;4923649;29;20032;-74
2022/07/18 17:57:56;;;;;;;2.33;1.10;;;45.30;34.80;;;;;;4924130;29;20040;-74